Time;durP1;ratioP1;P1;durP2;ratioP2;P2;SDS_P1;SDS_P2;PMS_P1;PMS_P2;Temp;Humidity;BMP_temperature;BMP_pressure;BME280_temperature;BME280_humidity;BME280_pressure;Samples;Min_cycle;Max_cycle;Signal;HPM_P1;HPM_P2
2023/12/16 00:01:04;;;;;;;;;;;0.20;99.90;;;;;;5014951;28;20004;-76
2023/12/16 00:03:29;;;;;;;;;;;0.10;99.90;;;;;;5014188;28;19944;-76
2023/12/16 00:05:55;;;;;;;;;;;0.10;99.90;;;;;;5013297;28;19917;-77
2023/12/16 00:08:22;;;;;;;;;;;0.10;99.90;;;;;;5015059;28;19909;-76
2023/12/16 00:10:47;;;;;;;;;;;0.10;99.90;;;;;;5013125;28;19914;-77
2023/12/16 00:13:13;;;;;;;;;;;0.00;99.90;;;;;;5030186;28;19912;-77
2023/12/16 00:15:39;;;;;;;;;;;0.00;99.90;;;;;;5014459;28;19906;-76
2023/12/16 00:18:05;;;;;;;;;;;0.10;99.90;;;;;;5014837;28;19916;-77
2023/12/16 00:20:30;;;;;;;;;;;0.10;99.90;;;;;;5015907;28;19955;-76
2023/12/16 00:22:56;;;;;;;;;;;0.10;99.90;;;;;;5034252;28;20293;-76
2023/12/16 00:25:21;;;;;;;;;;;0.00;99.90;;;;;;5014574;28;19905;-76
2023/12/16 00:27:47;;;;;;;;;;;0.00;99.90;;;;;;5012463;28;19909;-76
2023/12/16 00:30:12;;;;;;;;;;;0.00;99.90;;;;;;5028927;28;20488;-78
2023/12/16 00:32:39;;;;;;;;;;;0.10;99.90;;;;;;5012179;28;19909;-77
2023/12/16 00:35:08;;;;;;;;;;;0.10;99.90;;;;;;5012637;28;19910;-76
2023/12/16 00:37:33;;;;;;;;;;;0.10;99.90;;;;;;5028636;28;19951;-77
2023/12/16 00:39:59;;;;;;;;;;;0.10;99.90;;;;;;5013275;28;20289;-76
2023/12/16 00:42:25;;;;;;;;;;;0.20;99.90;;;;;;5012369;28;20332;-77
2023/12/16 00:44:50;;;;;;;;;;;0.10;99.90;;;;;;5031150;28;19910;-77
2023/12/16 00:47:16;;;;;;;;;;;0.10;99.90;;;;;;5031486;28;19913;-76
2023/12/16 00:49:41;;;;;;;;;;;0.10;99.90;;;;;;5016804;28;19956;-76
2023/12/16 00:52:07;;;;;;;;;;;0.10;99.90;;;;;;5016569;28;19909;-77
2023/12/16 00:54:32;;;;;;;;;;;0.10;99.90;;;;;;5015148;28;19910;-77
2023/12/16 00:56:58;;;;;;;;;;;0.20;99.90;;;;;;5017318;28;19912;-76
2023/12/16 00:59:26;;;;;;;;;;;0.00;99.90;;;;;;5031988;28;19971;-77
2023/12/16 01:01:51;;;;;;;;;;;-0.10;99.90;;;;;;5017135;28;19916;-75
2023/12/16 01:04:17;;;;;;;;;;;-0.20;99.90;;;;;;5031794;28;19925;-76
2023/12/16 01:06:43;;;;;;;;;;;-0.10;99.90;;;;;;5016779;28;19927;-76
2023/12/16 01:09:08;;;;;;;;;;;-0.10;99.90;;;;;;5032173;28;19909;-76
2023/12/16 01:11:34;;;;;;;;;;;-0.20;99.90;;;;;;5015444;28;19979;-77
2023/12/16 01:13:59;;;;;;;;;;;-0.20;99.90;;;;;;5015981;28;19918;-77
2023/12/16 01:16:25;;;;;;;;;;;-0.20;99.90;;;;;;5017935;28;19906;-77
2023/12/16 01:18:50;;;;;;;;;;;-0.10;99.90;;;;;;5015347;28;20331;-76
2023/12/16 01:21:17;;;;;;;;;;;-0.10;99.90;;;;;;5015464;28;19905;-76
2023/12/16 01:23:42;;;;;;;;;;;-0.10;99.90;;;;;;5031682;28;20366;-77
2023/12/16 01:26:08;;;;;;;;;;;-0.10;99.90;;;;;;5016764;28;19917;-76
2023/12/16 01:28:33;;;;;;;;;;;-0.10;99.90;;;;;;5015846;28;20437;-76
2023/12/16 01:30:59;;;;;;;;;;;-0.20;99.90;;;;;;5016115;28;19913;-76
2023/12/16 01:33:24;;;;;;;;;;;-0.20;99.90;;;;;;5015483;28;19972;-77
2023/12/16 01:35:50;;;;;;;;;;;-0.30;99.90;;;;;;5015915;28;19912;-76
2023/12/16 01:38:15;;;;;;;;;;;-0.40;99.90;;;;;;5015909;28;19979;-76
2023/12/16 01:40:41;;;;;;;;;;;-0.30;99.90;;;;;;5016832;28;19929;-76
2023/12/16 01:43:07;;;;;;;;;;;-0.30;99.90;;;;;;5015722;28;19914;-76
2023/12/16 01:45:32;;;;;;;;;;;-0.30;99.90;;;;;;5030842;28;19906;-75
2023/12/16 01:47:59;;;;;;;;;;;-0.30;99.90;;;;;;5016471;28;19913;-77
2023/12/16 01:50:26;;;;;;;;;;;-0.50;99.90;;;;;;5031846;28;19963;-76
2023/12/16 01:52:53;;;;;;;;;;;-0.30;99.90;;;;;;5016985;28;19913;-76
2023/12/16 01:55:19;;;;;;;;;;;-0.30;99.90;;;;;;5015189;28;20354;-74
2023/12/16 01:57:45;;;;;;;;;;;-0.30;99.90;;;;;;5017241;28;19905;-76
2023/12/16 02:00:11;;;;;;;;;;;-0.40;99.90;;;;;;5031670;28;20441;-76
2023/12/16 02:02:37;;;;;;;;;;;-0.40;99.90;;;;;;5015767;28;19937;-75
2023/12/16 02:05:03;;;;;;;;;;;-0.40;99.90;;;;;;5032410;28;20275;-76
2023/12/16 02:07:29;;;;;;;;;;;-0.40;99.90;;;;;;5016611;28;20313;-76
2023/12/16 02:09:55;;;;;;;;;;;-0.40;99.90;;;;;;5032258;28;19909;-77
2023/12/16 02:12:21;;;;;;;;;;;-0.40;99.90;;;;;;5016115;28;19909;-77
2023/12/16 02:14:46;;;;;;;;;;;-0.40;99.90;;;;;;5016980;28;20301;-76
2023/12/16 02:17:12;;;;;;;;;;;-0.30;99.90;;;;;;5032291;28;19952;-77
2023/12/16 02:19:38;;;;;;;;;;;-0.20;99.90;;;;;;5016678;28;19910;-77
2023/12/16 02:22:03;;;;;;;;;;;-0.10;99.90;;;;;;5016377;28;19963;-77
2023/12/16 02:24:31;;;;;;;;;;;0.00;99.90;;;;;;5032906;28;19915;-78
2023/12/16 02:26:57;;;;;;;;;;;0.10;99.90;;;;;;5020805;28;19910;-78
2023/12/16 02:29:22;;;;;;;;;;;0.20;99.90;;;;;;5031802;28;20004;-77
2023/12/16 02:31:48;;;;;;;;;;;0.30;99.90;;;;;;5015911;28;19952;-77
2023/12/16 02:34:13;;;;;;;;;;;0.40;99.90;;;;;;5013959;28;19917;-77
2023/12/16 02:36:39;;;;;;;;;;;0.30;99.90;;;;;;5015658;28;19906;-76
2023/12/16 02:39:05;;;;;;;;;;;0.40;99.90;;;;;;5014694;28;20302;-77
2023/12/16 02:41:30;;;;;;;;;;;0.30;99.90;;;;;;5013257;28;19971;-78
2023/12/16 02:43:55;;;;;;;;;;;0.20;99.90;;;;;;5013626;28;19916;-77
2023/12/16 02:46:21;;;;;;;;;;;0.10;99.90;;;;;;5014678;28;19960;-77
2023/12/16 02:48:46;;;;;;;;;;;0.10;99.90;;;;;;5030128;28;20000;-76
2023/12/16 02:51:19;;;;;;;;;;;0.00;99.90;;;;;;5030106;28;19905;-76
2023/12/16 02:53:44;;;;;;;;;;;0.00;99.90;;;;;;5029671;28;19963;-77
2023/12/16 02:56:10;;;;;;;;;;;0.00;99.90;;;;;;5013346;28;20281;-77
2023/12/16 02:58:35;;;;;;;;;;;0.10;99.90;;;;;;5029857;28;19909;-77
2023/12/16 03:01:01;;;;;;;;;;;0.20;99.90;;;;;;5014004;28;20367;-77
2023/12/16 03:03:26;;;;;;;;;;;0.20;99.90;;;;;;5012155;28;20007;-77
2023/12/16 03:05:52;;;;;;;;;;;0.30;99.90;;;;;;5013337;28;19922;-76
2023/12/16 03:08:17;;;;;;;;;;;0.30;99.90;;;;;;5029255;28;19906;-77
2023/12/16 03:10:43;;;;;;;;;;;0.30;99.90;;;;;;5014363;28;19909;-77
2023/12/16 03:13:09;;;;;;;;;;;0.40;99.90;;;;;;5014490;28;20302;-77
2023/12/16 03:15:34;;;;;;;;;;;0.50;99.90;;;;;;5014596;28;20017;-77
2023/12/16 03:18:00;;;;;;;;;;;0.30;99.90;;;;;;5029598;28;19932;-78
2023/12/16 03:20:25;;;;;;;;;;;0.30;99.90;;;;;;5014352;28;19910;-77
2023/12/16 03:22:52;;;;;;;;;;;0.40;99.90;;;;;;5014684;28;19909;-76
2023/12/16 03:25:18;;;;;;;;;;;0.40;99.90;;;;;;5029528;28;19913;-76
2023/12/16 03:27:43;;;;;;;;;;;0.30;99.90;;;;;;5015356;28;19918;-78
2023/12/16 03:30:09;;;;;;;;;;;0.40;99.90;;;;;;5029615;28;19959;-77
2023/12/16 03:32:35;;;;;;;;;;;0.30;99.90;;;;;;5014487;28;19916;-77
2023/12/16 03:35:01;;;;;;;;;;;0.40;99.90;;;;;;5029584;28;19910;-77
2023/12/16 03:37:27;;;;;;;;;;;0.50;99.90;;;;;;5014800;28;19909;-78
2023/12/16 03:39:53;;;;;;;;;;;0.50;99.90;;;;;;5013813;28;20370;-77
2023/12/16 03:42:19;;;;;;;;;;;0.30;99.90;;;;;;5014063;28;20404;-77
2023/12/16 03:44:46;;;;;;;;;;;0.30;99.90;;;;;;5013015;28;20546;-75
2023/12/16 03:47:12;;;;;;;;;;;0.30;99.90;;;;;;5014221;28;19913;-77
2023/12/16 03:49:39;;;;;;;;;;;0.20;99.90;;;;;;5013662;28;19913;-77
2023/12/16 03:52:04;;;;;;;;;;;0.10;99.90;;;;;;5029018;28;19987;-77
2023/12/16 03:54:30;;;;;;;;;;;0.00;99.90;;;;;;5013855;28;20429;-77
2023/12/16 03:56:56;;;;;;;;;;;-0.10;99.90;;;;;;5014246;28;19974;-77
2023/12/16 03:59:21;;;;;;;;;;;0.00;99.90;;;;;;5029244;28;19952;-76
2023/12/16 04:01:47;;;;;;;;;;;-0.20;99.90;;;;;;5014725;28;20382;-77
2023/12/16 04:04:12;;;;;;;;;;;-0.20;99.90;;;;;;5029182;28;19921;-77
2023/12/16 04:06:38;;;;;;;;;;;-0.20;99.90;;;;;;5014173;28;19920;-78
2023/12/16 04:09:03;;;;;;;;;;;-0.10;99.90;;;;;;5014054;28;19917;-77
2023/12/16 04:11:29;;;;;;;;;;;0.00;99.90;;;;;;5014288;28;19909;-77
2023/12/16 04:13:54;;;;;;;;;;;-0.10;99.90;;;;;;5012833;28;19905;-77
2023/12/16 04:16:20;;;;;;;;;;;-0.10;99.90;;;;;;5014676;28;19943;-77
2023/12/16 04:18:45;;;;;;;;;;;-0.20;99.90;;;;;;5016614;28;20298;-77
2023/12/16 04:21:11;;;;;;;;;;;-0.20;99.90;;;;;;5034233;28;19909;-76
2023/12/16 04:23:36;;;;;;;;;;;-0.30;99.90;;;;;;5018718;28;19920;-78
2023/12/16 04:26:02;;;;;;;;;;;-0.30;99.90;;;;;;5033324;28;19917;-77
2023/12/16 04:28:28;;;;;;;;;;;-0.40;99.90;;;;;;5018970;28;20390;-77
2023/12/16 04:30:53;;;;;;;;;;;-0.50;99.90;;;;;;5019325;28;20282;-78
2023/12/16 04:33:19;;;;;;;;;;;-0.50;99.90;;;;;;5036096;28;19964;-77
2023/12/16 04:35:44;;;;;;;;;;;-0.40;99.90;;;;;;5016068;28;19912;-77
2023/12/16 04:38:10;;;;;;;;;;;-0.40;99.90;;;;;;5017030;28;19916;-77
2023/12/16 04:40:35;;;;;;;;;;;-0.50;99.90;;;;;;5016833;28;19959;-78
2023/12/16 04:43:01;;;;;;;;;;;-0.50;99.90;;;;;;5015906;28;19941;-78
2023/12/16 04:45:26;;;;;;;;;;;-0.40;99.90;;;;;;5032280;28;19913;-77
2023/12/16 04:47:52;;;;;;;;;;;-0.40;99.90;;;;;;5016959;28;19905;-77
2023/12/16 04:50:17;;;;;;;;;;;-0.30;99.90;;;;;;5017329;28;19906;-77
2023/12/16 04:52:43;;;;;;;;;;;-0.20;99.90;;;;;;5033061;28;19905;-77
2023/12/16 04:55:10;;;;;;;;;;;-0.30;99.90;;;;;;5016634;28;19906;-77
2023/12/16 04:57:35;;;;;;;;;;;-0.30;99.90;;;;;;5017586;28;20310;-77
2023/12/16 05:00:01;;;;;;;;;;;-0.40;99.90;;;;;;5016618;28;19906;-78
2023/12/16 05:02:27;;;;;;;;;;;-0.40;99.90;;;;;;5017830;28;20011;-77
2023/12/16 05:04:53;;;;;;;;;;;-0.50;99.90;;;;;;5032417;28;19921;-77
2023/12/16 05:07:18;;;;;;;;;;;-0.60;99.90;;;;;;5017349;28;19929;-77
2023/12/16 05:09:44;;;;;;;;;;;-0.50;99.90;;;;;;5016222;28;19957;-77
2023/12/16 05:12:11;;;;;;;;;;;-0.50;99.90;;;;;;5016813;28;19925;-76
2023/12/16 05:14:38;;;;;;;;;;;-0.50;99.90;;;;;;5015685;28;19920;-78
2023/12/16 05:17:03;;;;;;;;;;;-0.50;99.90;;;;;;5017385;28;19964;-76
2023/12/16 05:19:29;;;;;;;;;;;-0.60;99.90;;;;;;5032149;28;19949;-77
2023/12/16 05:21:54;;;;;;;;;;;-0.60;99.90;;;;;;5016156;28;19905;-78
2023/12/16 05:24:20;;;;;;;;;;;-0.70;99.90;;;;;;5017032;28;19909;-77
2023/12/16 05:26:46;;;;;;;;;;;-0.60;99.90;;;;;;5032476;28;19918;-76
2023/12/16 05:29:11;;;;;;;;;;;-0.60;99.90;;;;;;5017002;28;19909;-77
2023/12/16 05:31:37;;;;;;;;;;;-0.60;99.90;;;;;;5032520;28;19936;-77
2023/12/16 05:34:02;;;;;;;;;;;-0.60;99.90;;;;;;5032359;28;19931;-78
2023/12/16 05:36:28;;;;;;;;;;;-0.50;99.90;;;;;;5031752;28;19959;-76
2023/12/16 05:38:53;;;;;;;;;;;-0.50;99.90;;;;;;5033025;28;19964;-77
2023/12/16 05:41:19;;;;;;;;;;;-0.60;99.90;;;;;;5016016;28;19909;-76
2023/12/16 05:43:44;;;;;;;;;;;-0.60;99.90;;;;;;5032819;28;20012;-77
2023/12/16 05:46:10;;;;;;;;;;;-0.60;99.90;;;;;;5017201;28;19909;-76
2023/12/16 05:48:36;;;;;;;;;;;-0.70;99.90;;;;;;5016519;28;19919;-76
2023/12/16 05:51:02;;;;;;;;;;;-0.70;99.90;;;;;;5017600;28;19911;-77
2023/12/16 05:53:27;;;;;;;;;;;-0.70;99.90;;;;;;5014341;28;20270;-77
2023/12/16 05:55:53;;;;;;;;;;;-0.60;99.90;;;;;;5014979;28;19905;-77
2023/12/16 05:58:18;;;;;;;;;;;-0.70;99.90;;;;;;5016539;28;19956;-76
2023/12/16 06:00:44;;;;;;;;;;;-0.70;99.90;;;;;;5017139;28;19972;-77
2023/12/16 06:03:09;;;;;;;;;;;-0.70;99.90;;;;;;5015828;28;19909;-76
2023/12/16 06:05:35;;;;;;;;;;;-0.70;99.90;;;;;;5016266;28;19928;-77
2023/12/16 06:08:00;;;;;;;;;;;-0.70;99.90;;;;;;5016916;28;19924;-78
2023/12/16 06:10:26;;;;;;;;;;;-0.80;99.90;;;;;;5016267;28;19906;-77
2023/12/16 06:12:51;;;;;;;;;;;-0.80;99.90;;;;;;5015838;28;19909;-77
2023/12/16 06:15:17;;;;;;;;;;;-0.80;99.90;;;;;;5016687;28;19906;-77
2023/12/16 06:17:42;;;;;;;;;;;-0.80;99.90;;;;;;5019015;28;20717;-77
2023/12/16 06:20:08;;;;;;;;;;;-0.80;99.90;;;;;;5019831;28;19905;-78
2023/12/16 06:22:33;;;;;;;;;;;-0.70;99.90;;;;;;5018394;28;20369;-77
2023/12/16 06:24:59;;;;;;;;;;;-0.70;99.90;;;;;;5016387;28;19909;-77
2023/12/16 06:27:24;;;;;;;;;;;-0.60;99.90;;;;;;5016356;28;20115;-77
2023/12/16 06:29:50;;;;;;;;;;;-0.70;99.90;;;;;;5015715;28;19910;-76
2023/12/16 06:32:15;;;;;;;;;;;-0.70;99.90;;;;;;5025762;28;19909;-77
2023/12/16 06:34:41;;;;;;;;;;;-0.60;99.90;;;;;;5018493;28;19979;-77
2023/12/16 06:37:07;;;;;;;;;;;-0.70;99.90;;;;;;5019752;28;19920;-78
2023/12/16 06:39:32;;;;;;;;;;;-0.70;99.90;;;;;;5016341;28;19905;-77
2023/12/16 06:41:58;;;;;;;;;;;-0.80;99.90;;;;;;5028892;28;19909;-77
2023/12/16 06:44:23;;;;;;;;;;;-0.80;99.90;;;;;;5014117;28;19912;-77
2023/12/16 06:46:49;;;;;;;;;;;-0.80;99.90;;;;;;5013621;28;19979;-76
2023/12/16 06:49:14;;;;;;;;;;;-0.70;99.90;;;;;;5013525;28;19994;-77
2023/12/16 06:51:40;;;;;;;;;;;-0.70;99.90;;;;;;5013834;28;20001;-77
2023/12/16 06:54:05;;;;;;;;;;;-0.60;99.90;;;;;;5028601;28;20290;-77
2023/12/16 06:56:32;;;;;;;;;;;-0.70;99.90;;;;;;5028898;28;19906;-77
2023/12/16 06:58:57;;;;;;;;;;;-0.60;99.90;;;;;;5013804;28;19955;-77
2023/12/16 07:01:23;;;;;;;;;;;-0.60;99.90;;;;;;5013684;28;20333;-77
2023/12/16 07:03:49;;;;;;;;;;;-0.60;99.90;;;;;;5013429;28;20353;-75
2023/12/16 07:06:17;;;;;;;;;;;-0.50;99.90;;;;;;5011964;28;19944;-76
2023/12/16 07:08:44;;;;;;;;;;;-0.50;99.90;;;;;;5013562;28;19905;-77
2023/12/16 07:11:11;;;;;;;;;;;-0.40;99.90;;;;;;5028835;28;19905;-77
2023/12/16 07:13:36;;;;;;;;;;;-0.40;99.90;;;;;;5028055;28;19959;-77
2023/12/16 07:16:05;;;;;;;;;;;-0.30;99.90;;;;;;5012119;28;19965;-77
2023/12/16 07:18:31;;;;;;;;;;;0.00;99.90;;;;;;5013502;28;19905;-76
2023/12/16 07:20:56;;;;;;;;;;;0.30;99.90;;;;;;5028509;28;20339;-77
2023/12/16 07:23:23;;;;;;;;;;;0.80;99.90;;;;;;5015355;28;19905;-78
2023/12/16 07:25:50;;;;;;;;;;;1.10;99.90;;;;;;5016050;28;19913;-78
2023/12/16 07:28:16;;;;;;;;;;;1.10;99.90;;;;;;5031978;28;19928;-77
2023/12/16 07:30:41;;;;;;;;;;;1.50;99.90;;;;;;5032965;28;19913;-77
2023/12/16 07:33:07;;;;;;;;;;;1.80;99.90;;;;;;5032349;28;19909;-78
2023/12/16 07:35:34;;;;;;;;;;;2.00;99.90;;;;;;5018650;28;19909;-78
2023/12/16 07:38:00;;;;;;;;;;;2.20;99.90;;;;;;5020106;28;19942;-77
2023/12/16 07:40:25;;;;;;;;;;;2.30;99.90;;;;;;5017082;28;19909;-78
2023/12/16 07:42:51;;;;;;;;;;;2.50;99.90;;;;;;5032576;28;19917;-77
2023/12/16 07:45:16;;;;;;;;;;;2.60;99.90;;;;;;5017902;28;19912;-78
2023/12/16 07:47:42;;;;;;;;;;;3.00;99.90;;;;;;5017720;28;19922;-78
2023/12/16 07:50:08;;;;;;;;;;;3.30;99.90;;;;;;5019625;28;20329;-78
2023/12/16 07:52:33;;;;;;;;;;;3.70;99.90;;;;;;5016845;28;20000;-77
2023/12/16 07:54:59;;;;;;;;;;;3.90;99.90;;;;;;5032338;28;19952;-78
2023/12/16 07:57:24;;;;;;;;;;;4.00;99.90;;;;;;5015955;28;19911;-78
2023/12/16 07:59:50;;;;;;;;;;;4.00;99.90;;;;;;5031344;28;19928;-76
2023/12/16 08:02:15;;;;;;;;;;;4.20;99.90;;;;;;5028563;28;20358;-76
2023/12/16 08:04:43;;;;;;;;;;;4.50;99.90;;;;;;5030727;28;19917;-76
2023/12/16 08:07:09;;;;;;;;;;;4.80;99.90;;;;;;5016598;28;19921;-76
2023/12/16 08:09:37;;;;;;;;;;;5.20;99.90;;;;;;5027984;28;20362;-75
2023/12/16 08:12:02;;;;;;;;;;;5.40;99.90;;;;;;5012938;28;19916;-77
2023/12/16 08:14:28;;;;;;;;;;;5.70;99.90;;;;;;5014001;28;20388;-76
2023/12/16 08:16:54;;;;;;;;;;;5.70;99.90;;;;;;5029346;28;19964;-76
2023/12/16 08:19:19;;;;;;;;;;;5.80;99.90;;;;;;5012883;28;19909;-76
2023/12/16 08:21:45;;;;;;;;;;;5.90;99.90;;;;;;5013567;28;19916;-76
2023/12/16 08:24:11;;;;;;;;;;;5.90;99.90;;;;;;5013428;28;19913;-76
2023/12/16 08:26:36;;;;;;;;;;;6.00;99.90;;;;;;5012020;28;19999;-76
2023/12/16 08:29:02;;;;;;;;;;;6.00;99.90;;;;;;5013769;28;20370;-76
2023/12/16 08:31:28;;;;;;;;;;;5.90;99.90;;;;;;5028715;28;20012;-76
2023/12/16 08:33:53;;;;;;;;;;;5.80;99.90;;;;;;5012666;28;19979;-76
2023/12/16 08:36:19;;;;;;;;;;;5.20;99.90;;;;;;5029195;28;20289;-76
2023/12/16 08:38:44;;;;;;;;;;;4.70;99.90;;;;;;5010118;28;19957;-76
2023/12/16 08:41:10;;;;;;;;;;;4.30;99.90;;;;;;5028925;28;20386;-75
2023/12/16 08:43:36;;;;;;;;;;;4.00;99.90;;;;;;5014791;28;19910;-77
2023/12/16 08:46:05;;;;;;;;;;;3.80;99.90;;;;;;5033850;28;19992;-77
2023/12/16 08:48:31;;;;;;;;;;;3.70;99.90;;;;;;5029401;28;19909;-76
2023/12/16 08:50:57;;;;;;;;;;;3.50;99.90;;;;;;5012096;28;19906;-76
2023/12/16 08:53:26;;;;;;;;;;;3.30;99.90;;;;;;5027357;28;20012;-77
2023/12/16 08:55:51;;;;;;;;;;;3.40;99.90;;;;;;5010074;28;19906;-76
2023/12/16 08:58:17;;;;;;;;;;;3.40;99.90;;;;;;5012375;28;19916;-77
2023/12/16 09:00:43;;;;;;;;;;;3.50;99.90;;;;;;5010949;28;20568;-76
2023/12/16 09:03:08;;;;;;;;;;;3.40;99.90;;;;;;5026860;28;19928;-75
2023/12/16 09:05:34;;;;;;;;;;;3.40;99.90;;;;;;5016768;28;19921;-77
2023/12/16 09:07:59;;;;;;;;;;;3.30;99.90;;;;;;5034519;28;19916;-77
2023/12/16 09:10:25;;;;;;;;;;;3.30;99.90;;;;;;5031559;28;19905;-77
2023/12/16 09:12:51;;;;;;;;;;;3.30;99.90;;;;;;5015638;28;19906;-76
2023/12/16 09:15:17;;;;;;;;;;;3.40;99.90;;;;;;5016238;28;19909;-75
2023/12/16 09:17:44;;;;;;;;;;;3.40;99.90;;;;;;5030041;28;19912;-76
2023/12/16 09:20:10;;;;;;;;;;;3.40;99.90;;;;;;5016408;28;20362;-77
2023/12/16 09:22:35;;;;;;;;;;;3.40;99.90;;;;;;5015093;28;19909;-76
2023/12/16 09:25:04;;;;;;;;;;;3.30;99.90;;;;;;5016174;28;20354;-78
2023/12/16 09:27:29;;;;;;;;;;;3.40;99.90;;;;;;5031370;28;20307;-76
2023/12/16 09:29:55;;;;;;;;;;;3.30;99.90;;;;;;5017301;28;19916;-77
2023/12/16 09:32:21;;;;;;;;;;;3.40;99.90;;;;;;5017788;28;19910;-76
2023/12/16 09:34:46;;;;;;;;;;;3.30;99.90;;;;;;5033763;28;19911;-76
2023/12/16 09:37:12;;;;;;;;;;;3.30;99.90;;;;;;5018544;28;19917;-78
2023/12/16 09:39:38;;;;;;;;;;;3.30;99.90;;;;;;5036451;28;20008;-76
2023/12/16 09:42:04;;;;;;;;;;;3.30;99.90;;;;;;5033904;28;19936;-76
2023/12/16 09:44:35;;;;;;;;;;;3.30;99.90;;;;;;5030657;28;19909;-76
2023/12/16 09:47:01;;;;;;;;;;;3.40;99.90;;;;;;5019343;28;20008;-77
2023/12/16 09:49:26;;;;;;;;;;;3.30;99.90;;;;;;5018024;28;19987;-76
2023/12/16 09:51:52;;;;;;;;;;;3.30;99.90;;;;;;5017537;28;19909;-77
2023/12/16 09:54:21;;;;;;;;;;;3.30;99.90;;;;;;5014727;28;19913;-77
2023/12/16 09:56:48;;;;;;;;;;;3.30;99.90;;;;;;5034440;28;19906;-76
2023/12/16 09:59:16;;;;;;;;;;;3.30;99.90;;;;;;5016908;28;19905;-77
2023/12/16 10:01:48;;;;;;;;;;;3.30;99.90;;;;;;5016956;28;20449;-78
2023/12/16 10:04:14;;;;;;;;;;;3.30;99.90;;;;;;5017000;28;19975;-77
2023/12/16 10:06:39;;;;;;;;;;;3.30;99.90;;;;;;5031661;28;20065;-77
2023/12/16 10:09:05;;;;;;;;;;;3.20;99.90;;;;;;5016995;28;20434;-77
2023/12/16 10:11:37;;;;;;;;;;;3.30;99.90;;;;;;5032018;28;19972;-76
2023/12/16 10:14:03;;;;;;;;;;;3.30;99.90;;;;;;5031990;28;19916;-78
2023/12/16 10:16:29;;;;;;;;;;;3.20;99.90;;;;;;5030110;28;20000;-76
2023/12/16 10:18:55;;;;;;;;;;;3.20;99.90;;;;;;5015456;28;20378;-76
2023/12/16 10:21:25;;;;;;;;;;;3.30;99.90;;;;;;5031607;28;19909;-77
2023/12/16 10:23:50;;;;;;;;;;;3.30;99.90;;;;;;5014923;28;19913;-77
2023/12/16 10:26:16;;;;;;;;;;;3.30;99.90;;;;;;5017100;28;19988;-77
2023/12/16 10:28:44;;;;;;;;;;;3.40;99.90;;;;;;5016760;28;19909;-77
2023/12/16 10:31:10;;;;;;;;;;;3.50;99.90;;;;;;5014297;28;19916;-76
2023/12/16 10:33:36;;;;;;;;;;;3.60;99.90;;;;;;5016152;28;19909;-77
2023/12/16 10:36:01;;;;;;;;;;;3.60;99.90;;;;;;5015702;28;19916;-77
2023/12/16 10:38:27;;;;;;;;;;;3.50;99.90;;;;;;5015195;28;19909;-77
2023/12/16 10:40:52;;;;;;;;;;;3.40;99.90;;;;;;5015962;28;19956;-76
2023/12/16 10:43:18;;;;;;;;;;;3.50;99.90;;;;;;5031708;28;19920;-77
2023/12/16 10:45:43;;;;;;;;;;;3.40;99.90;;;;;;5015911;28;20370;-77
2023/12/16 10:48:10;;;;;;;;;;;3.50;99.90;;;;;;5015598;28;19909;-75
2023/12/16 10:50:41;;;;;;;;;;;3.40;99.90;;;;;;5031257;28;19917;-77
2023/12/16 10:53:10;;;;;;;;;;;3.50;99.90;;;;;;5031384;28;19917;-77
2023/12/16 10:55:42;;;;;;;;;;;3.50;99.90;;;;;;5018750;28;19932;-78
2023/12/16 10:58:20;;;;;;;;;;;3.50;99.90;;;;;;5030473;28;19921;-76
2023/12/16 11:00:48;;;;;;;;;;;3.50;99.90;;;;;;5012075;28;19914;-76
2023/12/16 11:03:32;;;;;;;;;;;3.50;99.90;;;;;;5012932;28;19972;-76
2023/12/16 11:06:11;;;;;;;;;;;3.50;99.90;;;;;;5011558;28;19926;-76
2023/12/16 11:08:37;;;;;;;;;;;3.50;99.90;;;;;;5011826;28;19909;-77
2023/12/16 11:11:03;;;;;;;;;;;3.50;99.90;;;;;;5030192;28;19912;-77
2023/12/16 11:13:28;;;;;;;;;;;3.50;99.90;;;;;;5013217;28;19914;-77
2023/12/16 11:16:02;;;;;;;;;;;3.60;99.90;;;;;;5030070;28;19988;-76
2023/12/16 11:18:28;;;;;;;;;;;3.60;99.90;;;;;;5013025;28;19906;-76
2023/12/16 11:20:54;;;;;;;;;;;3.60;99.90;;;;;;5029306;28;19953;-78
2023/12/16 11:23:22;;;;;;;;;;;3.60;99.90;;;;;;5013065;28;19963;-76
2023/12/16 11:25:48;;;;;;;;;;;3.60;99.90;;;;;;5012232;28;19963;-77
2023/12/16 11:28:14;;;;;;;;;;;3.70;99.90;;;;;;5028894;28;19948;-76
2023/12/16 11:30:40;;;;;;;;;;;3.70;99.90;;;;;;5028942;28;19910;-77
2023/12/16 11:33:06;;;;;;;;;;;3.70;99.90;;;;;;5028183;28;19905;-77
2023/12/16 11:35:35;;;;;;;;;;;3.70;99.90;;;;;;5028835;28;19909;-77
2023/12/16 11:38:00;;;;;;;;;;;3.70;99.90;;;;;;5013577;28;19979;-76
2023/12/16 11:40:42;;;;;;;;;;;3.70;99.90;;;;;;5028338;28;20386;-77
2023/12/16 11:43:08;;;;;;;;;;;3.80;99.90;;;;;;5013437;28;19913;-77
2023/12/16 11:45:38;;;;;;;;;;;3.80;99.90;;;;;;5011353;28;19909;-77
2023/12/16 11:48:08;;;;;;;;;;;3.70;99.90;;;;;;5028694;28;20036;-77
2023/12/16 11:50:34;;;;;;;;;;;3.70;99.90;;;;;;5013692;28;19913;-78
2023/12/16 11:53:00;;;;;;;;;;;3.70;99.90;;;;;;5028553;28;19905;-77
2023/12/16 11:55:26;;;;;;;;;;;3.80;99.90;;;;;;5013091;28;20337;-77
2023/12/16 11:57:52;;;;;;;;;;;3.80;99.90;;;;;;5013940;28;19977;-77
2023/12/16 12:00:19;;;;;;;;;;;3.80;99.90;;;;;;5013271;28;19910;-76
2023/12/16 12:02:45;;;;;;;;;;;3.80;99.90;;;;;;5028460;28;20439;-77
2023/12/16 12:05:11;;;;;;;;;;;3.80;99.90;;;;;;5013747;28;19918;-77
2023/12/16 12:07:40;;;;;;;;;;;3.90;99.90;;;;;;5028095;28;19913;-77
2023/12/16 12:10:06;;;;;;;;;;;3.90;99.90;;;;;;5013802;28;19909;-77
2023/12/16 12:12:31;;;;;;;;;;;4.00;99.90;;;;;;5012605;28;19909;-77
2023/12/16 12:14:57;;;;;;;;;;;3.90;99.90;;;;;;5028162;28;20302;-77
2023/12/16 12:17:22;;;;;;;;;;;4.00;99.90;;;;;;5007909;28;19910;-77
2023/12/16 12:19:48;;;;;;;;;;;3.90;99.90;;;;;;5014419;28;20325;-77
2023/12/16 12:22:14;;;;;;;;;;;4.00;99.90;;;;;;5015272;28;20370;-77
2023/12/16 12:24:40;;;;;;;;;;;4.00;99.90;;;;;;5014371;28;19909;-77
2023/12/16 12:27:05;;;;;;;;;;;4.10;99.90;;;;;;5014879;28;19955;-78
2023/12/16 12:29:51;;;;;;;;;;;4.00;99.90;;;;;;5013552;28;19905;-77
2023/12/16 12:32:16;;;;;;;;;;;4.10;99.90;;;;;;5016647;28;19906;-77
2023/12/16 12:34:42;;;;;;;;;;;4.10;99.90;;;;;;5014869;28;19905;-79
2023/12/16 12:37:07;;;;;;;;;;;4.10;99.90;;;;;;5013953;28;20389;-76
2023/12/16 12:39:34;;;;;;;;;;;4.00;99.90;;;;;;5013926;28;19913;-78
2023/12/16 12:42:01;;;;;;;;;;;4.10;99.90;;;;;;5019205;28;19905;-78
2023/12/16 12:44:26;;;;;;;;;;;4.00;99.90;;;;;;5034735;28;19927;-77
2023/12/16 12:46:52;;;;;;;;;;;4.00;99.90;;;;;;5034000;28;20485;-77
2023/12/16 12:49:18;;;;;;;;;;;4.00;99.90;;;;;;5019622;28;19919;-77
2023/12/16 12:51:51;;;;;;;;;;;4.10;99.90;;;;;;5034285;28;19951;-78
2023/12/16 12:54:16;;;;;;;;;;;4.10;99.90;;;;;;5020459;28;19909;-77
2023/12/16 12:56:42;;;;;;;;;;;4.00;99.90;;;;;;5020312;28;20448;-77
2023/12/16 12:59:07;;;;;;;;;;;4.00;99.90;;;;;;5035942;28;19913;-77
2023/12/16 13:01:33;;;;;;;;;;;4.00;99.90;;;;;;5022390;28;19916;-78
2023/12/16 13:03:59;;;;;;;;;;;4.10;99.90;;;;;;5035959;28;19909;-77
2023/12/16 13:06:25;;;;;;;;;;;4.00;99.90;;;;;;5033246;28;19924;-78
2023/12/16 13:08:51;;;;;;;;;;;4.10;99.90;;;;;;5016999;28;19906;-78
2023/12/16 13:11:16;;;;;;;;;;;4.20;99.90;;;;;;5018454;28;19909;-76
2023/12/16 13:13:41;;;;;;;;;;;4.20;99.90;;;;;;5016635;28;19910;-77
2023/12/16 13:16:09;;;;;;;;;;;4.10;99.90;;;;;;5018891;28;19916;-78
2023/12/16 13:18:40;;;;;;;;;;;4.10;99.90;;;;;;5034099;28;19961;-77
2023/12/16 13:21:06;;;;;;;;;;;4.10;99.90;;;;;;5017129;28;20267;-77
2023/12/16 13:23:31;;;;;;;;;;;4.00;99.90;;;;;;5017308;28;20511;-77
2023/12/16 13:25:57;;;;;;;;;;;4.10;99.90;;;;;;5033892;28;19910;-78
2023/12/16 13:28:23;;;;;;;;;;;4.20;99.90;;;;;;5033472;28;19906;-78
2023/12/16 13:30:51;;;;;;;;;;;4.10;99.90;;;;;;5033065;28;19916;-77
2023/12/16 13:33:16;;;;;;;;;;;4.10;99.90;;;;;;5017618;28;19916;-76
2023/12/16 13:35:47;;;;;;;;;;;4.10;99.90;;;;;;5017847;28;19906;-78
2023/12/16 13:38:13;;;;;;;;;;;4.10;99.90;;;;;;5033706;28;19905;-77
2023/12/16 13:40:38;;;;;;;;;;;4.10;99.90;;;;;;5016796;28;19906;-77
2023/12/16 13:43:04;;;;;;;;;;;4.10;99.90;;;;;;5032893;28;19916;-77
2023/12/16 13:45:30;;;;;;;;;;;4.00;99.90;;;;;;5032652;28;19905;-77
2023/12/16 13:47:56;;;;;;;;;;;4.10;99.90;;;;;;5018129;28;19913;-78
2023/12/16 13:50:21;;;;;;;;;;;4.00;99.90;;;;;;5015827;28;20317;-77
2023/12/16 13:52:50;;;;;;;;;;;4.00;99.90;;;;;;5018056;28;20370;-77
2023/12/16 13:55:16;;;;;;;;;;;3.90;99.90;;;;;;5018246;28;19906;-76
2023/12/16 13:57:42;;;;;;;;;;;3.90;99.90;;;;;;5031976;28;19932;-77
2023/12/16 14:00:08;;;;;;;;;;;4.00;99.90;;;;;;5018477;28;19909;-78
2023/12/16 14:02:33;;;;;;;;;;;3.90;99.90;;;;;;5034344;28;19915;-77
2023/12/16 14:05:01;;;;;;;;;;;3.90;99.90;;;;;;5018716;28;19925;-77
2023/12/16 14:07:30;;;;;;;;;;;3.80;99.90;;;;;;5018688;28;20004;-78
2023/12/16 14:09:55;;;;;;;;;;;3.90;99.90;;;;;;5017949;28;19917;-78
2023/12/16 14:12:21;;;;;;;;;;;3.80;99.90;;;;;;5018786;28;19909;-77
2023/12/16 14:14:47;;;;;;;;;;;3.80;99.90;;;;;;5034138;28;20290;-77
2023/12/16 14:17:16;;;;;;;;;;;3.70;99.90;;;;;;5019630;28;19909;-78
2023/12/16 14:19:41;;;;;;;;;;;3.70;99.90;;;;;;5018625;28;19936;-78